Time;durP1;ratioP1;P1;durP2;ratioP2;P2;SDS_P1;SDS_P2;PMS_P1;PMS_P2;Temp;Humidity;BMP_temperature;BMP_pressure;BME280_temperature;BME280_humidity;BME280_pressure;Samples;Min_cycle;Max_cycle;Signal;HPM_P1;HPM_P2
2022/01/05 00:01:30;;;;;;;24.30;10.02;;;;;;;;;;5028061;28;20055;-50
2022/01/05 00:03:56;;;;;;;16.15;9.93;;;;;;;;;;5024117;28;20037;-52
2022/01/05 00:06:22;;;;;;;21.48;9.80;;;;;;;;;;5029176;28;20037;-53
2022/01/05 00:08:48;;;;;;;17.77;9.27;;;;;;;;;;5028376;28;20145;-56
2022/01/05 00:11:13;;;;;;;21.10;9.20;;;;;;;;;;5020684;28;20033;-56
2022/01/05 00:13:39;;;;;;;13.95;9.27;;;;;;;;;;5025831;28;20111;-56
2022/01/05 00:16:05;;;;;;;15.95;9.57;;;;;;;;;;5024700;28;20041;-53
2022/01/05 00:18:31;;;;;;;21.83;9.68;;;;;;;;;;5028403;28;20068;-54
2022/01/05 00:20:59;;;;;;;19.25;10.85;;;;;;;;;;5020539;28;20104;-55
2022/01/05 00:23:25;;;;;;;17.25;11.50;;;;;;;;;;5024028;28;20033;-51
2022/01/05 00:25:51;;;;;;;17.30;10.30;;;;;;;;;;5022727;28;20036;-56
2022/01/05 00:28:17;;;;;;;20.50;10.63;;;;;;;;;;5022464;28;20049;-55
2022/01/05 00:30:42;;;;;;;17.50;10.20;;;;;;;;;;5020673;28;20131;-51
2022/01/05 00:33:08;;;;;;;20.13;10.05;;;;;;;;;;5020929;28;20386;-49
2022/01/05 00:35:35;;;;;;;19.02;10.75;;;;;;;;;;5027127;28;20041;-53
2022/01/05 00:38:01;;;;;;;20.30;10.07;;;;;;;;;;5026527;28;20037;-55
2022/01/05 00:40:27;;;;;;;18.35;11.27;;;;;;;;;;5028005;28;20055;-51
2022/01/05 00:42:53;;;;;;;17.08;10.73;;;;;;;;;;5021740;28;20029;-51
2022/01/05 00:45:19;;;;;;;26.27;12.15;;;;;;;;;;5023406;28;20065;-55
2022/01/05 00:47:45;;;;;;;19.40;10.88;;;;;;;;;;5025797;28;20053;-56
2022/01/05 00:50:11;;;;;;;22.58;11.00;;;;;;;;;;5025037;28;20125;-54
2022/01/05 00:52:36;;;;;;;20.60;10.60;;;;;;;;;;5023936;28;20033;-54
2022/01/05 00:55:03;;;;;;;24.23;11.35;;;;;;;;;;5021739;28;20048;-52
2022/01/05 00:57:29;;;;;;;15.77;11.63;;;;;;;;;;5023070;28;20064;-56
2022/01/05 00:59:55;;;;;;;20.73;10.27;;;;;;;;;;5021595;28;20063;-53
2022/01/05 01:02:20;;;;;;;29.38;10.98;;;;;;;;;;5020795;28;20482;-52
2022/01/05 01:04:46;;;;;;;18.25;9.60;;;;;;;;;;5025995;28;20034;-50
2022/01/05 01:07:12;;;;;;;18.88;9.90;;;;;;;;;;5026592;28;20033;-52
2022/01/05 01:09:38;;;;;;;23.63;10.27;;;;;;;;;;5017726;28;20537;-56
2022/01/05 01:12:04;;;;;;;15.10;9.82;;;;;;;;;;5027879;28;20029;-52
2022/01/05 01:14:30;;;;;;;23.15;10.15;;;;;;;;;;5021611;28;20447;-52
2022/01/05 01:16:56;;;;;;;20.30;10.63;;;;;;;;;;5025794;28;20104;-51
2022/01/05 01:19:21;;;;;;;18.17;10.57;;;;;;;;;;5021912;28;20126;-53
2022/01/05 01:21:47;;;;;;;18.85;9.38;;;;;;;;;;5025274;28;20041;-54
2022/01/05 01:24:13;;;;;;;20.75;10.60;;;;;;;;;;5022247;28;20030;-50
2022/01/05 01:26:39;;;;;;;17.88;10.05;;;;;;;;;;5015602;28;20060;-55
2022/01/05 01:29:05;;;;;;;23.77;10.70;;;;;;;;;;5017766;28;20116;-56
2022/01/05 01:31:31;;;;;;;18.63;9.43;;;;;;;;;;5023672;28;20120;-56
2022/01/05 01:33:57;;;;;;;19.52;10.38;;;;;;;;;;5022967;28;20038;-53
2022/01/05 01:36:23;;;;;;;14.13;9.18;;;;;;;;;;5022215;28;20061;-51
2022/01/05 01:38:49;;;;;;;20.33;10.02;;;;;;;;;;5021411;28;20041;-52
2022/01/05 01:41:15;;;;;;;17.02;10.02;;;;;;;;;;5024413;28;20030;-55
2022/01/05 01:43:41;;;;;;;15.50;9.35;;;;;;;;;;5020573;28;20029;-52
2022/01/05 01:46:08;;;;;;;18.85;10.18;;;;;;;;;;5027718;28;20219;-55
2022/01/05 01:48:34;;;;;;;14.05;9.82;;;;;;;;;;5024147;28;20045;-56
2022/01/05 01:51:00;;;;;;;18.95;9.95;;;;;;;;;;5018907;28;20125;-56
2022/01/05 01:53:26;;;;;;;18.45;9.70;;;;;;;;;;5026685;28;20546;-56
2022/01/05 01:55:52;;;;;;;18.20;9.20;;;;;;;;;;5021397;28;20490;-56
2022/01/05 01:58:21;;;;;;;16.50;10.35;;;;;;;;;;5025419;28;20478;-50
2022/01/05 02:00:47;;;;;;;14.05;9.65;;;;;;;;;;5019677;28;20117;-56
2022/01/05 02:03:14;;;;;;;19.05;9.32;;;;;;;;;;5018379;28;20163;-53
2022/01/05 02:05:40;;;;;;;14.80;9.32;;;;;;;;;;5019217;28;20022;-55
2022/01/05 02:08:06;;;;;;;15.15;10.00;;;;;;;;;;5022194;28;20030;-55
2022/01/05 02:10:32;;;;;;;21.95;11.73;;;;;;;;;;5020530;28;20484;-54
2022/01/05 02:12:58;;;;;;;22.05;12.25;;;;;;;;;;5020253;28;20029;-51
2022/01/05 02:15:24;;;;;;;27.05;14.25;;;;;;;;;;5021044;28;20099;-52
2022/01/05 02:18:06;;;;;;;19.85;13.30;;;;;;;;;;5021109;28;20159;-54
2022/01/05 02:20:32;;;;;;;19.95;13.95;;;;;;;;;;5024748;28;20049;-56
2022/01/05 02:22:58;;;;;;;19.88;13.98;;;;;;;;;;5022977;28;20037;-53
2022/01/05 02:25:25;;;;;;;26.25;14.95;;;;;;;;;;5022150;28;20493;-49
2022/01/05 02:27:54;;;;;;;21.80;14.52;;;;;;;;;;5016364;28;20395;-51
2022/01/05 02:30:26;;;;;;;20.25;14.98;;;;;;;;;;5025238;28;20033;-53
2022/01/05 02:32:53;;;;;;;20.75;14.20;;;;;;;;;;5021389;28;20036;-55
2022/01/05 02:35:19;;;;;;;15.60;11.63;;;;;;;;;;5017155;28;20103;-56
2022/01/05 02:37:47;;;;;;;14.48;8.10;;;;;;;;;;5026401;28;20068;-48
2022/01/05 02:40:16;;;;;;;10.18;7.28;;;;;;;;;;5024882;28;20037;-48
2022/01/05 02:42:43;;;;;;;6.70;5.25;;;;;;;;;;5018803;28;20029;-49
2022/01/05 02:45:10;;;;;;;9.85;5.47;;;;;;;;;;5013401;28;20534;-52
2022/01/05 02:47:37;;;;;;;5.97;5.20;;;;;;;;;;5021016;28;20033;-48
2022/01/05 02:50:04;;;;;;;5.68;4.53;;;;;;;;;;5017282;28;20129;-50
2022/01/05 02:52:30;;;;;;;5.53;4.43;;;;;;;;;;5021198;28;20033;-50
2022/01/05 02:54:56;;;;;;;4.25;3.83;;;;;;;;;;5026651;28;20474;-50
2022/01/05 02:57:22;;;;;;;5.13;3.90;;;;;;;;;;5022270;28;20048;-50
2022/01/05 02:59:48;;;;;;;4.07;3.67;;;;;;;;;;5015036;28;20025;-48
2022/01/05 03:02:14;;;;;;;3.80;3.40;;;;;;;;;;5024165;28;20049;-50
2022/01/05 03:04:40;;;;;;;3.78;3.35;;;;;;;;;;5024875;28;20108;-52
2022/01/05 03:07:06;;;;;;;3.83;3.35;;;;;;;;;;5024374;28;20167;-51
2022/01/05 03:09:31;;;;;;;2.38;2.17;;;;;;;;;;5021443;28;20046;-48
2022/01/05 03:11:57;;;;;;;7.13;3.70;;;;;;;;;;5019311;28;20033;-49
2022/01/05 03:14:23;;;;;;;1.52;1.42;;;;;;;;;;5021278;28;20427;-49
2022/01/05 03:16:48;;;;;;;1.90;1.40;;;;;;;;;;5023393;28;20124;-49
2022/01/05 03:19:14;;;;;;;1.42;1.05;;;;;;;;;;5017811;28;20045;-50
2022/01/05 03:21:40;;;;;;;1.30;1.20;;;;;;;;;;5026967;28;20032;-51
2022/01/05 03:24:06;;;;;;;1.20;1.20;;;;;;;;;;5023884;28;20029;-56
2022/01/05 03:26:32;;;;;;;1.10;1.00;;;;;;;;;;5024871;28;20429;-51
2022/01/05 03:28:57;;;;;;;1.02;1.02;;;;;;;;;;5026637;28;20033;-52
2022/01/05 03:31:23;;;;;;;1.38;1.08;;;;;;;;;;5025206;28;20056;-52
2022/01/05 03:33:49;;;;;;;1.63;1.20;;;;;;;;;;5027350;28;20029;-54
2022/01/05 03:36:15;;;;;;;1.13;1.02;;;;;;;;;;5017346;28;20048;-48
2022/01/05 03:38:41;;;;;;;0.90;0.90;;;;;;;;;;5020756;28;20037;-50
2022/01/05 03:41:07;;;;;;;0.50;0.50;;;;;;;;;;5020629;28;20034;-53
2022/01/05 03:43:33;;;;;;;1.88;0.52;;;;;;;;;;5026641;28;20071;-49
2022/01/05 03:45:59;;;;;;;1.05;0.73;;;;;;;;;;5029247;28;20034;-52
2022/01/05 03:48:25;;;;;;;6.35;0.70;;;;;;;;;;5027010;28;20045;-49
2022/01/05 03:50:51;;;;;;;0.60;0.60;;;;;;;;;;5024426;28;20120;-49
2022/01/05 03:53:17;;;;;;;1.85;0.50;;;;;;;;;;5026432;28;20021;-50
2022/01/05 03:55:45;;;;;;;0.43;0.43;;;;;;;;;;5026043;28;20103;-49
2022/01/05 03:58:11;;;;;;;0.47;0.47;;;;;;;;;;5018112;28;20079;-50
2022/01/05 04:00:49;;;;;;;0.50;0.50;;;;;;;;;;5024743;28;20424;-51
2022/01/05 04:03:15;;;;;;;0.50;0.50;;;;;;;;;;5028417;28;20377;-54
2022/01/05 04:05:42;;;;;;;0.60;0.60;;;;;;;;;;5019557;28;20040;-50
2022/01/05 04:08:07;;;;;;;1.42;0.45;;;;;;;;;;5024156;28;20095;-48
2022/01/05 04:10:33;;;;;;;0.40;0.30;;;;;;;;;;5025930;28;20045;-51
2022/01/05 04:12:59;;;;;;;0.50;0.50;;;;;;;;;;5024926;28;20072;-50
2022/01/05 04:15:26;;;;;;;0.35;0.35;;;;;;;;;;5022394;28;20037;-49
2022/01/05 04:17:52;;;;;;;0.28;0.28;;;;;;;;;;5026665;28;20071;-51
2022/01/05 04:20:18;;;;;;;0.20;0.20;;;;;;;;;;5019495;28;20563;-50
2022/01/05 04:22:45;;;;;;;0.30;0.30;;;;;;;;;;5025034;28;20099;-53
2022/01/05 04:25:12;;;;;;;0.38;0.20;;;;;;;;;;5027377;28;20435;-48
2022/01/05 04:27:38;;;;;;;0.88;0.17;;;;;;;;;;5029529;28;20029;-53
2022/01/05 04:30:06;;;;;;;0.20;0.20;;;;;;;;;;5023124;28;20088;-52
2022/01/05 04:32:32;;;;;;;0.10;0.10;;;;;;;;;;5020445;28;20033;-51
2022/01/05 04:34:57;;;;;;;1.42;0.22;;;;;;;;;;5027373;28;20364;-49
2022/01/05 04:37:23;;;;;;;0.13;0.13;;;;;;;;;;5022979;28;20072;-50
2022/01/05 04:39:50;;;;;;;0.63;0.30;;;;;;;;;;5026583;28;20106;-56
2022/01/05 04:42:16;;;;;;;3.60;0.32;;;;;;;;;;5025739;28;20061;-50
2022/01/05 04:44:41;;;;;;;0.50;0.10;;;;;;;;;;5020093;28;20391;-49
2022/01/05 04:47:08;;;;;;;0.30;0.30;;;;;;;;;;5023516;28;20041;-48
2022/01/05 04:49:34;;;;;;;0.20;0.20;;;;;;;;;;5020343;28;20033;-49
2022/01/05 04:51:59;;;;;;;0.22;0.10;;;;;;;;;;5024798;28;20061;-53
2022/01/05 04:54:25;;;;;;;0.15;0.15;;;;;;;;;;5023485;28;20065;-47
2022/01/05 04:56:51;;;;;;;0.10;0.10;;;;;;;;;;5022169;28;20030;-50
2022/01/05 04:59:17;;;;;;;0.40;0.20;;;;;;;;;;5022756;28;20480;-50
2022/01/05 05:01:43;;;;;;;0.52;0.10;;;;;;;;;;5017454;28;20025;-51
2022/01/05 05:04:08;;;;;;;0.88;0.55;;;;;;;;;;5023715;28;20030;-49
2022/01/05 05:06:34;;;;;;;1.10;0.15;;;;;;;;;;5018317;28;20433;-49
2022/01/05 05:09:00;;;;;;;0.13;0.13;;;;;;;;;;5022039;28;20037;-50
2022/01/05 05:11:26;;;;;;;0.35;0.20;;;;;;;;;;5023281;28;20040;-50
2022/01/05 05:13:51;;;;;;;0.20;0.20;;;;;;;;;;5018921;28;20029;-53
2022/01/05 05:16:17;;;;;;;0.15;0.15;;;;;;;;;;5018672;28;20039;-48
2022/01/05 05:18:43;;;;;;;0.95;0.47;;;;;;;;;;5023293;28;20033;-48
2022/01/05 05:21:09;;;;;;;0.20;0.20;;;;;;;;;;5023727;28;20033;-49
2022/01/05 05:23:34;;;;;;;0.13;0.13;;;;;;;;;;5018582;28;20545;-50
2022/01/05 05:26:00;;;;;;;0.30;0.30;;;;;;;;;;5023477;28;20473;-52
2022/01/05 05:28:26;;;;;;;1.13;0.22;;;;;;;;;;5023639;28;20034;-49
2022/01/05 05:30:52;;;;;;;0.93;0.30;;;;;;;;;;5021743;28;20030;-49
2022/01/05 05:33:18;;;;;;;0.15;0.15;;;;;;;;;;5024161;28;20068;-53
2022/01/05 05:35:43;;;;;;;0.30;0.20;;;;;;;;;;5023665;28;20056;-48
2022/01/05 05:38:11;;;;;;;0.73;0.40;;;;;;;;;;5026371;28;20029;-52
2022/01/05 05:40:38;;;;;;;0.15;0.15;;;;;;;;;;5027681;28;20041;-48
2022/01/05 05:43:04;;;;;;;0.10;0.10;;;;;;;;;;5024515;28;20037;-51
2022/01/05 05:45:29;;;;;;;0.57;0.30;;;;;;;;;;5023178;28;20090;-51
2022/01/05 05:47:55;;;;;;;0.10;0.10;;;;;;;;;;5021352;28;20451;-50
2022/01/05 05:50:21;;;;;;;3.72;0.70;;;;;;;;;;5021725;28;20038;-52
2022/01/05 05:52:47;;;;;;;0.40;0.40;;;;;;;;;;5020094;28;20026;-56
2022/01/05 05:55:13;;;;;;;0.30;0.30;;;;;;;;;;5023390;28;20135;-51
2022/01/05 05:57:38;;;;;;;1.45;0.28;;;;;;;;;;5021837;28;20034;-55
2022/01/05 06:00:06;;;;;;;2.55;0.50;;;;;;;;;;5021126;28;20084;-50
2022/01/05 06:02:32;;;;;;;0.30;0.30;;;;;;;;;;5020012;28;20490;-52
2022/01/05 06:04:58;;;;;;;0.50;0.50;;;;;;;;;;5018260;28;20120;-50
2022/01/05 06:07:24;;;;;;;2.30;0.95;;;;;;;;;;5024289;28;20490;-47
2022/01/05 06:09:51;;;;;;;2.03;0.65;;;;;;;;;;5019002;28;20387;-55
2022/01/05 06:12:17;;;;;;;0.70;0.70;;;;;;;;;;5022887;28;20087;-52
2022/01/05 06:14:42;;;;;;;1.77;0.50;;;;;;;;;;5025333;28;20037;-51
2022/01/05 06:17:08;;;;;;;0.68;0.60;;;;;;;;;;5020403;28;20038;-52
2022/01/05 06:19:34;;;;;;;0.40;0.40;;;;;;;;;;5021266;28;20045;-50
2022/01/05 06:22:00;;;;;;;0.52;0.30;;;;;;;;;;5023981;28;20521;-50
2022/01/05 06:24:26;;;;;;;0.20;0.20;;;;;;;;;;5024627;28;20041;-55
2022/01/05 06:26:52;;;;;;;0.20;0.20;;;;;;;;;;5024784;28;20033;-48
2022/01/05 06:29:19;;;;;;;0.25;0.25;;;;;;;;;;5025438;28;20108;-53
2022/01/05 06:31:45;;;;;;;0.77;0.35;;;;;;;;;;5019478;28;20509;-52
2022/01/05 06:34:11;;;;;;;0.45;0.43;;;;;;;;;;5018519;28;20041;-55
2022/01/05 06:36:37;;;;;;;0.60;0.50;;;;;;;;;;5020371;28;20033;-53
2022/01/05 06:39:03;;;;;;;0.30;0.30;;;;;;;;;;5021844;28;20033;-53
2022/01/05 06:41:29;;;;;;;1.35;0.70;;;;;;;;;;5022812;28;20034;-52
2022/01/05 06:43:55;;;;;;;1.27;1.10;;;;;;;;;;5016127;28;20040;-53
2022/01/05 06:46:21;;;;;;;0.70;0.70;;;;;;;;;;5016158;28;20029;-53
2022/01/05 06:48:46;;;;;;;0.80;0.80;;;;;;;;;;5023699;28;20033;-55
2022/01/05 06:51:12;;;;;;;0.68;0.68;;;;;;;;;;5017194;28;20065;-57
2022/01/05 06:53:38;;;;;;;0.80;0.70;;;;;;;;;;5015519;28;20040;-53
2022/01/05 06:56:04;;;;;;;0.70;0.70;;;;;;;;;;5024524;28;20123;-51
2022/01/05 06:58:31;;;;;;;1.75;0.50;;;;;;;;;;5014693;28;20045;-48
2022/01/05 07:00:56;;;;;;;2.92;0.40;;;;;;;;;;5022384;28;20040;-54
2022/01/05 07:03:22;;;;;;;2.55;0.40;;;;;;;;;;5019729;28;20058;-53
2022/01/05 07:05:48;;;;;;;0.40;0.40;;;;;;;;;;5024165;28;20390;-50
2022/01/05 07:08:14;;;;;;;1.27;0.60;;;;;;;;;;5020415;28;20027;-51
2022/01/05 07:10:39;;;;;;;1.65;0.68;;;;;;;;;;5018217;28;20087;-49
2022/01/05 07:13:05;;;;;;;0.60;0.50;;;;;;;;;;5022517;28;20033;-53
2022/01/05 07:15:31;;;;;;;0.57;0.38;;;;;;;;;;5022454;28;20029;-54
2022/01/05 07:17:57;;;;;;;1.02;0.52;;;;;;;;;;5020138;28;20163;-52
2022/01/05 07:20:23;;;;;;;1.17;0.40;;;;;;;;;;5021643;28;20041;-47
2022/01/05 07:22:49;;;;;;;1.15;0.70;;;;;;;;;;5025120;28;20046;-54
2022/01/05 07:25:14;;;;;;;5.20;0.90;;;;;;;;;;5020623;28;20033;-54
2022/01/05 07:27:40;;;;;;;3.05;1.02;;;;;;;;;;5019502;28;20021;-49
2022/01/05 07:30:07;;;;;;;0.52;0.45;;;;;;;;;;5018470;28;20196;-54
2022/01/05 07:32:33;;;;;;;1.30;0.80;;;;;;;;;;5026696;28;20059;-51
2022/01/05 07:34:59;;;;;;;0.65;0.50;;;;;;;;;;5020430;28;20101;-51
2022/01/05 07:37:24;;;;;;;1.52;0.77;;;;;;;;;;5022857;28;20163;-52
2022/01/05 07:39:50;;;;;;;0.43;0.40;;;;;;;;;;5025931;28;20030;-56
2022/01/05 07:42:16;;;;;;;4.28;0.90;;;;;;;;;;5028677;28;20120;-51
2022/01/05 07:44:42;;;;;;;2.55;0.63;;;;;;;;;;5018480;28;20034;-49
2022/01/05 07:47:08;;;;;;;1.60;0.50;;;;;;;;;;5025105;28;20107;-52
2022/01/05 07:49:34;;;;;;;1.75;0.80;;;;;;;;;;5020832;28;20055;-51
2022/01/05 07:52:00;;;;;;;0.68;0.68;;;;;;;;;;5024504;28;20032;-49
2022/01/05 07:54:26;;;;;;;0.77;0.73;;;;;;;;;;5026063;28;20565;-48
2022/01/05 07:56:51;;;;;;;1.25;0.70;;;;;;;;;;5021156;28;20459;-53
2022/01/05 07:59:17;;;;;;;0.68;0.68;;;;;;;;;;5024169;28;20072;-53
2022/01/05 08:01:43;;;;;;;5.45;1.17;;;;;;;;;;5021440;28;20029;-51
2022/01/05 08:04:08;;;;;;;1.25;0.90;;;;;;;;;;5021753;28;20026;-50
2022/01/05 08:06:34;;;;;;;1.70;1.30;;;;;;;;;;5029874;28;20063;-51
2022/01/05 08:09:00;;;;;;;1.33;1.00;;;;;;;;;;5026838;28;20038;-51
2022/01/05 08:11:26;;;;;;;1.73;0.88;;;;;;;;;;5024499;28;20037;-50
2022/01/05 08:13:52;;;;;;;1.73;0.95;;;;;;;;;;5024695;28;20041;-49
2022/01/05 08:16:19;;;;;;;0.70;0.70;;;;;;;;;;5026295;28;20033;-50
2022/01/05 08:18:45;;;;;;;0.70;0.70;;;;;;;;;;5019081;28;20037;-53
2022/01/05 08:21:12;;;;;;;4.57;0.65;;;;;;;;;;5026617;28;20406;-50
2022/01/05 08:23:37;;;;;;;1.25;0.98;;;;;;;;;;5023159;28;20037;-55
2022/01/05 08:26:04;;;;;;;0.68;0.68;;;;;;;;;;5022843;28;20032;-53
2022/01/05 08:28:32;;;;;;;1.27;0.90;;;;;;;;;;5031762;28;20499;-54
2022/01/05 08:30:58;;;;;;;2.13;0.82;;;;;;;;;;5019511;28;20048;-51
2022/01/05 08:33:25;;;;;;;2.58;0.60;;;;;;;;;;5020772;28;20043;-50
2022/01/05 08:35:51;;;;;;;2.20;1.15;;;;;;;;;;5022122;28;20219;-51
2022/01/05 08:38:17;;;;;;;0.77;0.75;;;;;;;;;;5028017;28;20366;-48
2022/01/05 08:40:44;;;;;;;0.50;0.47;;;;;;;;;;5024104;28;20034;-48
2022/01/05 08:43:12;;;;;;;0.60;0.60;;;;;;;;;;5020437;28;20033;-55
2022/01/05 08:45:38;;;;;;;0.40;0.40;;;;;;;;;;5017104;28;20041;-53
2022/01/05 08:48:05;;;;;;;2.53;0.40;;;;;;;;;;5020268;28;20091;-49
2022/01/05 08:50:33;;;;;;;1.58;0.40;;;;;;;;;;5025140;28;20044;-49
2022/01/05 08:53:00;;;;;;;1.13;0.43;;;;;;;;;;5021595;28;20511;-50
2022/01/05 08:55:33;;;;;;;1.33;0.60;;;;;;;;;;5019113;28;20046;-55
2022/01/05 08:57:59;;;;;;;0.57;0.50;;;;;;;;;;5015329;28;20069;-49
2022/01/05 09:00:26;;;;;;;0.68;0.60;;;;;;;;;;5022810;28;20037;-55
2022/01/05 09:02:51;;;;;;;0.50;0.50;;;;;;;;;;5018180;28;20474;-53
2022/01/05 09:05:17;;;;;;;0.80;0.60;;;;;;;;;;5021015;28;20038;-50
2022/01/05 09:07:43;;;;;;;0.90;0.30;;;;;;;;;;5021982;28;20486;-48
2022/01/05 09:10:09;;;;;;;0.40;0.40;;;;;;;;;;5025717;28;20045;-49
2022/01/05 09:12:35;;;;;;;3.08;0.70;;;;;;;;;;5021407;28;20116;-51
2022/01/05 09:15:04;;;;;;;2.00;0.60;;;;;;;;;;5024049;28;20060;-54
2022/01/05 09:17:30;;;;;;;3.65;0.70;;;;;;;;;;5019914;28;20112;-50
2022/01/05 09:19:56;;;;;;;4.60;0.63;;;;;;;;;;5019923;28;20072;-54
2022/01/05 09:22:23;;;;;;;1.70;0.95;;;;;;;;;;5020114;28;20467;-51
2022/01/05 09:24:50;;;;;;;1.17;0.65;;;;;;;;;;5022098;28;20033;-50
2022/01/05 09:27:16;;;;;;;0.95;0.70;;;;;;;;;;5025325;28;20095;-50
2022/01/05 09:29:42;;;;;;;0.55;0.55;;;;;;;;;;5021532;28;20037;-47
2022/01/05 09:32:09;;;;;;;1.05;1.00;;;;;;;;;;5022841;28;20061;-50
2022/01/05 09:34:40;;;;;;;0.80;0.80;;;;;;;;;;5018443;28;20034;-54
2022/01/05 09:37:20;;;;;;;2.30;0.77;;;;;;;;;;5015029;28;20640;-53
2022/01/05 09:42:31;;;;;;;0.88;0.88;;;;;;;;;;5022269;28;20040;-51
2022/01/05 09:44:58;;;;;;;0.60;0.60;;;;;;;;;;5023336;28;20032;-53
2022/01/05 09:47:32;;;;;;;0.68;0.68;;;;;;;;;;5017098;28;20044;-51
2022/01/05 09:49:59;;;;;;;0.50;0.50;;;;;;;;;;5014770;28;20037;-52
2022/01/05 09:52:26;;;;;;;0.60;0.60;;;;;;;;;;5018931;28;20030;-49
2022/01/05 09:54:53;;;;;;;1.15;1.13;;;;;;;;;;5018419;28;20033;-50
2022/01/05 09:57:20;;;;;;;4.22;2.63;;;;;;;;;;5019463;28;20175;-54
2022/01/05 09:59:47;;;;;;;0.70;0.70;;;;;;;;;;5018469;28;20033;-54
2022/01/05 10:02:15;;;;;;;0.70;0.70;;;;;;;;;;5022696;28;20029;-53
2022/01/05 10:04:41;;;;;;;2.70;0.50;;;;;;;;;;5016611;28;20482;-51
2022/01/05 10:07:08;;;;;;;0.30;0.30;;;;;;;;;;5016032;28;20034;-55
2022/01/05 10:09:37;;;;;;;1.58;0.60;;;;;;;;;;5018724;28;20036;-53
2022/01/05 10:12:04;;;;;;;1.65;0.80;;;;;;;;;;5017002;28;20033;-52
2022/01/05 10:14:30;;;;;;;3.53;0.70;;;;;;;;;;5019208;28;20044;-53
2022/01/05 10:17:08;;;;;;;0.55;0.55;;;;;;;;;;5021646;28;20029;-56
2022/01/05 10:19:35;;;;;;;9.73;0.57;;;;;;;;;;5016714;28;20034;-57
2022/01/05 10:22:02;;;;;;;0.47;0.47;;;;;;;;;;5020328;28;20033;-51
2022/01/05 10:24:45;;;;;;;3.65;0.90;;;;;;;;;;5019208;28;20042;-50
2022/01/05 10:27:18;;;;;;;0.57;0.57;;;;;;;;;;5017972;28;20065;-50
2022/01/05 10:29:55;;;;;;;0.68;0.63;;;;;;;;;;5018380;28;20029;-54
2022/01/05 10:32:22;;;;;;;0.70;0.70;;;;;;;;;;5016914;28;20117;-50
2022/01/05 10:35:03;;;;;;;8.50;0.85;;;;;;;;;;5015315;28;20041;-49
2022/01/05 10:37:29;;;;;;;0.85;0.73;;;;;;;;;;5018013;28;20025;-55
2022/01/05 10:40:25;;;;;;;4.80;0.85;;;;;;;;;;5020197;28;20026;-53
2022/01/05 10:42:56;;;;;;;1.15;0.95;;;;;;;;;;5024477;28;20037;-51
2022/01/05 10:45:42;;;;;;;1.15;0.50;;;;;;;;;;5019273;28;20037;-51
2022/01/05 10:48:11;;;;;;;2.67;0.93;;;;;;;;;;5025466;28;20054;-48
2022/01/05 10:50:38;;;;;;;1.95;0.80;;;;;;;;;;5021477;28;20044;-51
2022/01/05 10:53:05;;;;;;;7.63;0.85;;;;;;;;;;5024007;28;20044;-53
2022/01/05 10:55:32;;;;;;;2.47;0.85;;;;;;;;;;5019123;28;20071;-53
2022/01/05 10:58:04;;;;;;;5.93;0.98;;;;;;;;;;5023774;28;20026;-48
2022/01/05 11:00:39;;;;;;;4.00;1.08;;;;;;;;;;5026719;28;20029;-47
2022/01/05 11:03:39;;;;;;;0.65;0.65;;;;;;;;;;5028932;28;20033;-48
2022/01/05 11:06:07;;;;;;;2.22;0.90;;;;;;;;;;5019386;28;20068;-52
2022/01/05 11:08:55;;;;;;;2.13;0.82;;;;;;;;;;5021811;28;20117;-52
2022/01/05 11:11:42;;;;;;;1.80;1.00;;;;;;;;;;5017131;28;20047;-55
2022/01/05 11:14:29;;;;;;;1.27;1.05;;;;;;;;;;5022918;28;20046;-56
2022/01/05 11:16:55;;;;;;;2.40;1.23;;;;;;;;;;5009704;28;20053;-51
2022/01/05 11:19:22;;;;;;;1.58;1.00;;;;;;;;;;5019375;28;20053;-53
2022/01/05 11:22:01;;;;;;;3.30;1.10;;;;;;;;;;5021672;28;20443;-53
2022/01/05 11:24:29;;;;;;;2.65;2.00;;;;;;;;;;5017850;28;20486;-52
2022/01/05 11:26:55;;;;;;;2.00;1.52;;;;;;;;;;5019866;28;20041;-51
2022/01/05 11:29:21;;;;;;;3.05;2.13;;;;;;;;;;5021935;28;20098;-49
2022/01/05 11:31:46;;;;;;;2.22;1.30;;;;;;;;;;5023235;28;20029;-52
2022/01/05 11:34:13;;;;;;;3.90;1.40;;;;;;;;;;5021276;28;20033;-50
2022/01/05 11:36:40;;;;;;;1.98;1.45;;;;;;;;;;5027057;28;20375;-50
2022/01/05 11:39:06;;;;;;;2.47;1.20;;;;;;;;;;5023529;28;20057;-48
2022/01/05 11:41:33;;;;;;;2.13;1.63;;;;;;;;;;5022528;28;20021;-51
2022/01/05 11:43:59;;;;;;;3.17;1.40;;;;;;;;;;5020203;28;20091;-50
2022/01/05 11:46:29;;;;;;;5.80;1.40;;;;;;;;;;5023521;28;20439;-52
2022/01/05 11:48:59;;;;;;;2.85;1.27;;;;;;;;;;5023459;28;20017;-48
2022/01/05 11:51:48;;;;;;;1.88;1.00;;;;;;;;;;5026457;28;20117;-53
2022/01/05 11:54:16;;;;;;;4.28;0.88;;;;;;;;;;5021226;28;20021;-53
2022/01/05 11:56:45;;;;;;;6.35;1.20;;;;;;;;;;5022932;28;20413;-53
2022/01/05 11:59:33;;;;;;;3.40;1.42;;;;;;;;;;5022587;28;20032;-50
2022/01/05 12:02:02;;;;;;;4.18;1.10;;;;;;;;;;5021933;28;20048;-50
2022/01/05 12:04:30;;;;;;;6.13;1.30;;;;;;;;;;5019853;28;20065;-47
2022/01/05 12:07:02;;;;;;;4.03;1.42;;;;;;;;;;5023820;28;20482;-49
2022/01/05 12:09:30;;;;;;;1.10;0.93;;;;;;;;;;5022021;28;20382;-52
2022/01/05 12:12:00;;;;;;;5.45;1.20;;;;;;;;;;5018643;28;20379;-53
2022/01/05 12:14:26;;;;;;;10.15;1.23;;;;;;;;;;5020536;28;20113;-54
2022/01/05 12:17:01;;;;;;;6.38;1.08;;;;;;;;;;5024020;28;20029;-51
2022/01/05 12:19:46;;;;;;;1.30;1.05;;;;;;;;;;5022338;28;20507;-50
2022/01/05 12:22:21;;;;;;;3.13;1.10;;;;;;;;;;5015192;28;20157;-49
2022/01/05 12:24:53;;;;;;;2.95;1.00;;;;;;;;;;5021531;28;20148;-53
2022/01/05 12:27:23;;;;;;;3.27;1.27;;;;;;;;;;5025456;28;20378;-50
2022/01/05 12:29:50;;;;;;;3.83;1.15;;;;;;;;;;5021019;28;20033;-47
2022/01/05 12:32:33;;;;;;;6.50;1.65;;;;;;;;;;5020478;28;20022;-49
2022/01/05 12:35:00;;;;;;;4.00;1.20;;;;;;;;;;5024497;28;20103;-51
2022/01/05 12:37:45;;;;;;;3.15;1.50;;;;;;;;;;5022836;28;20034;-53
2022/01/05 12:40:27;;;;;;;5.80;1.58;;;;;;;;;;5016942;28;20485;-55
2022/01/05 12:43:08;;;;;;;7.35;1.73;;;;;;;;;;5021188;28;20026;-48
2022/01/05 12:45:49;;;;;;;2.15;0.88;;;;;;;;;;5021146;28;20064;-48
2022/01/05 12:48:36;;;;;;;7.38;1.67;;;;;;;;;;5023298;28;20532;-53
2022/01/05 12:51:17;;;;;;;2.13;1.80;;;;;;;;;;5024658;28;20069;-50
2022/01/05 12:54:13;;;;;;;6.65;1.38;;;;;;;;;;5021014;28;20034;-47
2022/01/05 12:56:54;;;;;;;2.28;1.33;;;;;;;;;;5023753;28;20045;-53
2022/01/05 12:59:35;;;;;;;4.45;1.60;;;;;;;;;;5023272;28;20061;-48
2022/01/05 13:02:04;;;;;;;2.63;1.42;;;;;;;;;;5022240;28;20049;-50
2022/01/05 13:04:31;;;;;;;3.88;2.45;;;;;;;;;;5020807;28;20037;-48
2022/01/05 13:06:59;;;;;;;4.93;1.10;;;;;;;;;;5020637;28;20229;-50
2022/01/05 13:09:27;;;;;;;4.78;1.40;;;;;;;;;;5023863;28;20509;-49
2022/01/05 13:12:22;;;;;;;3.38;1.25;;;;;;;;;;5022501;28;20056;-53
2022/01/05 13:14:53;;;;;;;4.10;1.60;;;;;;;;;;5017738;28;20118;-49
2022/01/05 13:17:23;;;;;;;1.65;1.45;;;;;;;;;;5024898;28;20026;-50
2022/01/05 13:19:52;;;;;;;9.75;1.83;;;;;;;;;;5019919;28;20054;-47
2022/01/05 13:22:24;;;;;;;3.10;1.30;;;;;;;;;;5023368;28;20033;-49
2022/01/05 13:24:59;;;;;;;9.35;1.50;;;;;;;;;;5023548;28;20032;-52
2022/01/05 13:27:24;;;;;;;4.75;1.30;;;;;;;;;;5024119;28;20037;-48
2022/01/05 13:29:53;;;;;;;5.57;1.50;;;;;;;;;;5019463;28;20466;-50
2022/01/05 13:32:20;;;;;;;3.03;1.70;;;;;;;;;;5019233;28;20041;-50
2022/01/05 13:34:48;;;;;;;2.85;1.58;;;;;;;;;;5021819;28;20029;-51
2022/01/05 13:37:36;;;;;;;7.05;1.98;;;;;;;;;;5019118;28;20029;-50
2022/01/05 13:40:07;;;;;;;3.88;1.77;;;;;;;;;;5020673;28;20026;-49
2022/01/05 13:42:39;;;;;;;5.38;1.67;;;;;;;;;;5022495;28;20084;-48
2022/01/05 13:45:15;;;;;;;5.43;1.92;;;;;;;;;;5021689;28;20091;-53
2022/01/05 13:47:41;;;;;;;9.90;1.67;;;;;;;;;;5019422;28;20471;-53
2022/01/05 13:50:17;;;;;;;7.43;1.80;;;;;;;;;;5020266;28;20048;-47
2022/01/05 13:52:44;;;;;;;5.82;2.08;;;;;;;;;;5021804;28;20095;-51
2022/01/05 13:55:24;;;;;;;2.88;1.40;;;;;;;;;;5020094;28;20033;-49
2022/01/05 13:58:02;;;;;;;2.50;1.20;;;;;;;;;;5014279;28;20030;-47
2022/01/05 14:00:28;;;;;;;4.15;1.67;;;;;;;;;;5023723;28;20029;-54
2022/01/05 14:02:54;;;;;;;3.80;1.50;;;;;;;;;;5020019;28;20115;-48
2022/01/05 14:05:19;;;;;;;5.13;1.90;;;;;;;;;;5016860;28;20029;-53
2022/01/05 14:07:45;;;;;;;2.63;1.20;;;;;;;;;;5019147;28;20466;-49
2022/01/05 14:10:16;;;;;;;4.25;1.60;;;;;;;;;;5022156;28;20025;-50
2022/01/05 14:12:44;;;;;;;7.55;1.70;;;;;;;;;;5020548;28;20080;-51
2022/01/05 14:15:11;;;;;;;7.22;1.45;;;;;;;;;;5017403;28;20132;-53
2022/01/05 14:17:38;;;;;;;4.80;1.85;;;;;;;;;;5019994;28;20395;-49
2022/01/05 14:20:18;;;;;;;3.63;1.92;;;;;;;;;;5020478;28;20034;-49
2022/01/05 14:22:56;;;;;;;3.90;1.90;;;;;;;;;;5020563;28;20025;-50
2022/01/05 14:25:38;;;;;;;7.28;2.75;;;;;;;;;;5023517;28;20036;-48
2022/01/05 14:28:15;;;;;;;4.93;1.83;;;;;;;;;;5016918;28;20030;-51
2022/01/05 14:31:02;;;;;;;5.60;2.00;;;;;;;;;;5019007;28;20092;-53
2022/01/05 14:33:36;;;;;;;3.65;1.70;;;;;;;;;;5018561;28;20037;-50
2022/01/05 14:36:17;;;;;;;4.90;2.05;;;;;;;;;;5020250;28;20038;-55
2022/01/05 14:38:58;;;;;;;3.63;1.42;;;;;;;;;;5014945;28;20088;-49
2022/01/05 14:41:41;;;;;;;2.33;1.23;;;;;;;;;;5018950;28;20057;-53
2022/01/05 14:44:11;;;;;;;6.30;1.83;;;;;;;;;;5014676;28;20044;-48
2022/01/05 14:46:38;;;;;;;2.85;1.65;;;;;;;;;;5018603;28;20104;-49
2022/01/05 14:49:05;;;;;;;6.93;1.95;;;;;;;;;;5021262;28;20099;-48